Time;durP1;ratioP1;P1;durP2;ratioP2;P2;SDS_P1;SDS_P2;PMS_P1;PMS_P2;Temp;Humidity;BMP_temperature;BMP_pressure;BME280_temperature;BME280_humidity;BME280_pressure;Samples;Min_cycle;Max_cycle;Signal;HPM_P1;HPM_P2
2021/12/28 00:02:18;;;;;;;4.40;1.65;;;;;;;0.56;100.00;42623.05;1730799;81;21119;-57
2021/12/28 00:04:45;;;;;;;11.08;2.33;;;;;;;0.58;100.00;41959.79;1705641;83;20976;-57
2021/12/28 00:07:11;;;;;;;4.53;1.77;;;;;;;0.59;100.00;41960.56;1705642;82;21177;-57
2021/12/28 00:09:39;;;;;;;9.55;2.15;;;;;;;0.60;100.00;40633.61;1711032;82;21173;-57
2021/12/28 00:12:07;;;;;;;5.70;1.72;;;;;;;0.62;100.00;39473.74;1718052;82;21043;-62
2021/12/28 00:14:38;;;;;;;5.72;1.70;;;;;;;0.62;100.00;38313.12;1729170;81;20995;-61
2021/12/28 00:19:49;;;;;;;8.93;2.47;;;;;;;0.64;100.00;35662.31;1736182;81;21779;-61
2021/12/28 00:22:16;;;;;;;7.62;1.80;;;;;;;0.64;100.00;34999.27;1739784;81;21053;-61
2021/12/28 00:24:43;;;;;;;5.65;1.72;;;;;;;0.60;100.00;35493.98;1737132;81;21068;-60
2021/12/28 00:27:10;;;;;;;2.50;1.45;;;;;;;0.57;100.00;35823.36;1706448;82;21071;-57
2021/12/28 00:29:36;;;;;;;3.80;1.75;;;;;;;0.55;100.00;35822.04;1742103;81;21048;-61
2021/12/28 00:32:05;;;;;;;7.67;1.90;;;;;;;0.55;100.00;33669.19;1742134;81;21802;-61
2021/12/28 00:34:33;;;;;;;6.47;1.80;;;;;;;0.55;100.00;32179.33;1737454;82;21405;-61
2021/12/28 00:37:00;;;;;;;6.20;1.85;;;;;;;0.54;100.00;31847.73;1736417;81;21065;-61
2021/12/28 00:39:28;;;;;;;3.33;1.60;;;;;;;0.56;100.00;30359.87;1738965;81;20953;-61
2021/12/28 00:41:56;;;;;;;4.03;2.00;;;;;;;0.55;100.00;29366.96;1749306;81;21123;-61
2021/12/28 00:44:22;;;;;;;5.87;1.87;;;;;;;0.54;100.00;28539.43;1737406;81;21387;-61
2021/12/28 00:46:49;;;;;;;5.90;2.22;;;;;;;0.55;100.00;26556.97;1733098;81;21051;-61
2021/12/28 00:49:17;;;;;;;6.20;2.08;;;;;;;0.55;100.00;24905.13;1708042;82;21021;-61
2021/12/28 00:51:43;;;;;;;4.85;1.98;;;;;;;0.60;100.00;23090.87;1704465;82;21062;-61
2021/12/28 00:54:10;;;;;;;4.35;1.85;;;;;;;0.59;100.00;21770.41;1712540;81;21275;-61
2021/12/28 00:56:37;;;;;;;9.70;2.27;;;;;;;0.56;100.00;21934.33;1720023;82;21229;-60
2021/12/28 00:59:04;;;;;;;7.00;1.52;;;;;;;0.55;100.00;21438.95;1710552;82;21064;-62
2021/12/28 01:01:31;;;;;;;5.53;1.90;;;;;;;0.56;100.00;20614.61;1742113;81;21417;-62
2021/12/28 01:03:58;;;;;;;6.85;1.82;;;;;;;0.53;100.00;20448.45;1743096;81;21051;-62
2021/12/28 01:06:26;;;;;;;5.62;1.72;;;;;;;0.55;100.00;19624.57;1741292;81;21049;-56
2021/12/28 01:08:53;;;;;;;4.10;1.77;;;;;;;0.54;100.00;19294.45;1736300;81;21541;-57
2021/12/28 01:11:20;;;;;;;5.28;1.95;;;;;;;0.56;100.00;18306.36;1703920;82;21069;-57
2021/12/28 01:13:47;;;;;;;8.10;1.65;;;;;;;0.59;100.00;17153.55;1717628;82;22124;-56
2021/12/28 01:16:14;;;;;;;4.33;2.02;;;;;;;0.56;100.00;16823.34;1753776;81;21112;-56
2021/12/28 01:18:42;;;;;;;9.30;1.80;;;;;;;0.54;100.00;16657.91;1755126;81;21477;-56
2021/12/28 01:21:08;;;;;;;7.42;1.80;;;;;;;0.52;100.00;16492.50;1757755;81;21135;-56
2021/12/28 01:23:35;;;;;;;7.80;2.15;;;;;;;0.53;100.00;15998.55;1756217;80;20953;-56
2021/12/28 01:26:02;;;;;;;6.33;1.47;;;;;;;0.54;100.00;15175.67;1755195;80;21095;-57
2021/12/28 01:28:29;;;;;;;8.83;1.72;;;;;;;0.55;100.00;14682.05;1752795;81;21003;-58
2021/12/28 01:30:55;;;;;;;6.22;1.52;;;;;;;0.56;100.00;14682.21;1755038;81;21086;-57
2021/12/28 01:33:22;;;;;;;6.55;1.52;;;;;;;0.56;100.00;14188.49;1752984;80;21260;-58
2021/12/28 01:35:50;;;;;;;4.30;1.47;;;;;;;0.54;100.00;14352.49;1751585;80;20942;-60
2021/12/28 01:38:17;;;;;;;5.40;1.40;;;;;;;0.52;100.00;14680.96;1754211;80;21083;-60
2021/12/28 01:40:44;;;;;;;7.25;1.40;;;;;;;0.49;100.00;15009.43;1755324;80;21105;-61
2021/12/28 01:43:20;;;;;;;3.92;1.50;;;;;;;0.48;100.00;15009.12;1757650;81;21304;-57
2021/12/28 01:45:52;;;;;;;5.28;1.27;;;;;;;0.54;100.00;13035.83;1757018;80;21148;-57
2021/12/28 01:48:33;;;;;;;5.83;1.52;;;;;;;0.54;100.00;13035.83;1756004;81;21056;-57
2021/12/28 01:51:03;;;;;;;12.98;2.05;;;;;;;0.53;100.00;12871.00;1755555;80;21548;-57
2021/12/28 01:53:30;;;;;;;4.05;2.08;;;;;;;0.51;100.00;12705.91;1756766;80;21005;-56
2021/12/28 01:55:59;;;;;;;4.17;1.40;;;;;;;0.49;100.00;12705.36;1755474;80;21536;-56
2021/12/28 01:58:26;;;;;;;49.38;2.30;;;;;;;0.50;100.00;12047.61;1754770;80;21777;-57
2021/12/28 02:00:53;;;;;;;6.97;1.70;;;;;;;0.55;100.00;11061.95;1756146;80;21051;-56
2021/12/28 02:03:22;;;;;;;2.87;1.22;;;;;;;0.60;100.00;9747.73;1755104;81;21063;-57
2021/12/28 02:05:50;;;;;;;6.90;1.35;;;;;;;0.60;100.00;9418.84;1758032;81;20960;-57
2021/12/28 02:08:17;;;;;;;5.90;1.50;;;;;;;0.56;100.00;9746.94;1757177;80;21072;-59
2021/12/28 02:10:45;;;;;;;8.35;1.72;;;;;;;0.58;100.00;9418.39;1751491;81;21137;-57
2021/12/28 02:13:12;;;;;;;7.10;1.32;;;;;;;0.63;100.00;8433.41;1754099;80;21063;-56
2021/12/28 02:15:38;;;;;;;7.35;1.27;;;;;;;0.67;100.00;7776.79;1731070;81;21017;-58
2021/12/28 02:18:06;;;;;;;3.62;1.30;;;;;;;0.66;100.00;7448.07;1728287;82;21037;-57
2021/12/28 02:20:34;;;;;;;6.92;1.57;;;;;;;0.65;100.00;7447.79;1725865;82;21068;-58
2021/12/28 02:23:01;;;;;;;5.67;1.62;;;;;;;0.62;100.00;7775.81;1728786;82;21079;-58
2021/12/28 02:25:31;;;;;;;12.58;1.67;;;;;;;0.63;100.00;7776.01;1724004;82;21387;-58
2021/12/28 02:28:03;;;;;;;5.22;1.30;;;;;;;0.63;100.00;7447.41;1684511;83;21139;-56
2021/12/28 02:30:30;;;;;;;4.55;1.17;;;;;;;0.67;100.00;6791.11;1705010;83;21067;-57
2021/12/28 02:32:56;;;;;;;3.15;1.42;;;;;;;0.67;100.00;6462.49;1709163;82;21067;-58
2021/12/28 02:35:25;;;;;;;4.20;1.50;;;;;;;0.70;100.00;5970.26;1733879;82;21109;-58
2021/12/28 02:37:52;;;;;;;4.62;1.17;;;;;;;0.73;100.00;5478.05;1737710;81;21610;-57
2021/12/28 02:40:23;;;;;;;5.83;1.37;;;;;;;0.73;100.00;4985.43;1735644;82;21396;-57
2021/12/28 02:42:50;;;;;;;6.53;1.35;;;;;;;0.73;100.00;4821.23;1694794;83;21092;-65
2021/12/28 02:45:23;;;;;;;6.10;1.37;;;;;;;0.76;100.00;4493.30;1690948;83;21077;-65
2021/12/28 02:47:50;;;;;;;5.72;1.47;;;;;;;0.79;100.00;3837.03;1706623;82;21060;-64
2021/12/28 02:50:29;;;;;;;3.00;1.20;;;;;;;0.81;100.00;3344.84;1732656;81;21450;-63
2021/12/28 02:52:57;;;;;;;1.77;0.90;;;;;;;0.83;100.00;3016.82;1735542;82;21521;-64
2021/12/28 02:55:30;;;;;;;3.08;1.30;;;;;;;0.82;100.00;3016.70;1735687;81;21096;-64
2021/12/28 02:58:01;;;;;;;6.00;1.32;;;;;;;0.79;100.00;3344.60;1688900;83;21378;-63
2021/12/28 03:00:47;;;;;;;6.45;1.62;;;;;;;0.76;100.00;3672.49;1690340;83;22378;-64
2021/12/28 03:03:17;;;;;;;5.80;1.75;;;;;;;0.77;100.00;3672.56;1683907;83;21021;-64
2021/12/28 03:05:47;;;;;;;5.03;1.00;;;;;;;0.78;100.00;3344.41;1699728;82;22000;-64
2021/12/28 03:08:16;;;;;;;7.33;1.17;;;;;;;0.78;100.00;3180.35;1709458;82;21499;-64
2021/12/28 03:10:44;;;;;;;7.37;1.72;;;;;;;0.79;100.00;3016.29;1737055;81;21529;-64
2021/12/28 03:13:25;;;;;;;3.08;1.47;;;;;;;0.79;100.00;2688.14;1744470;82;21124;-65
2021/12/28 03:15:52;;;;;;;3.15;1.07;;;;;;;0.80;100.00;2688.25;1721149;81;21052;-65
2021/12/28 03:18:19;;;;;;;4.87;1.10;;;;;;;0.82;100.00;2360.27;1719743;81;21057;-65
2021/12/28 03:20:46;;;;;;;1.52;1.10;;;;;;;0.83;100.00;2196.29;1714187;81;21028;-67
2021/12/28 03:23:18;;;;;;;4.67;1.30;;;;;;;0.84;100.00;1868.18;1733162;81;21104;-67
2021/12/28 03:25:45;;;;;;;11.03;1.72;;;;;;;0.86;100.00;1540.25;1715301;82;21131;-66
2021/12/28 03:28:22;;;;;;;4.65;1.10;;;;;;;0.89;100.00;1212.36;1718028;82;21032;-67
2021/12/28 03:30:49;;;;;;;5.55;1.32;;;;;;;0.91;100.00;556.38;1720119;81;21104;-67
2021/12/28 03:33:17;;;;;;;3.55;1.20;;;;;;;0.90;100.00;392.29;1727589;81;21074;-60
2021/12/28 03:35:43;;;;;;;3.80;1.20;;;;;;;0.88;100.00;392.18;1725151;82;21068;-58
2021/12/28 03:38:10;;;;;;;2.70;1.40;;;;;;;0.86;100.00;392.03;1701977;82;21123;-60
2021/12/28 03:40:37;;;;;;;7.47;1.65;;;;;;;0.83;100.00;391.85;1729997;81;21076;-66
2021/12/28 03:43:04;;;;;;;3.12;1.10;;;;;;;0.84;100.00;391.88;1726191;81;21286;-59
2021/12/28 03:45:30;;;;;;;4.05;1.50;;;;;;;0.82;100.00;391.77;1723430;81;21029;-59
2021/12/28 03:47:59;;;;;;;8.00;1.90;;;;;;;0.77;100.00;555.39;1722881;82;21024;-59
2021/12/28 03:50:26;;;;;;;4.22;1.50;;;;;;;0.74;100.00;883.13;1726908;81;21137;-59
2021/12/28 03:52:54;;;;;;;14.38;1.87;;;;;;;0.71;100.00;1046.88;1717069;81;21103;-59
2021/12/28 03:55:23;;;;;;;7.28;1.92;;;;;;;0.66;100.00;1210.45;1725018;81;21541;-58
2021/12/28 03:57:51;;;;;;;6.55;1.80;;;;;;;0.68;100.00;1210.62;1723931;82;21086;-68
2021/12/28 04:00:19;;;;;;;4.95;1.77;;;;;;;0.67;100.00;1046.59;1720029;82;21079;-58
2021/12/28 04:02:46;;;;;;;9.80;1.95;;;;;;;0.65;100.00;882.44;1721464;81;21134;-58
2021/12/28 04:05:13;;;;;;;10.72;1.60;;;;;;;0.68;100.00;554.70;1716833;83;21294;-60
2021/12/28 04:07:40;;;;;;;5.33;1.67;;;;;;;0.70;100.00;62.99;1725343;81;21049;-60
2021/12/28 04:10:09;;;;;;;5.97;1.72;;;;;;;0.69;100.00;-101.02;1726830;81;21533;-59
2021/12/28 04:12:36;;;;;;;4.92;2.30;;;;;;;0.68;100.00;-265.00;1711858;81;20989;-67
2021/12/28 04:15:06;;;;;;;9.28;1.65;;;;;;;0.65;100.00;-101.28;1716043;82;21209;-59
2021/12/28 04:17:37;;;;;;;8.30;1.90;;;;;;;0.62;100.00;62.48;1701346;82;21043;-67
2021/12/28 04:20:06;;;;;;;5.45;2.10;;;;;;;0.62;100.00;-101.44;1692590;82;21043;-68
2021/12/28 04:22:34;;;;;;;8.83;2.30;;;;;;;0.61;100.00;-265.44;1695531;82;20997;-68
2021/12/28 04:25:01;;;;;;;5.08;1.90;;;;;;;0.65;100.00;-756.89;1700034;82;21025;-68
2021/12/28 04:27:28;;;;;;;19.42;2.98;;;;;;;0.66;100.00;-920.73;1692272;82;21539;-67
2021/12/28 04:29:54;;;;;;;6.92;2.45;;;;;;;0.65;100.00;-1084.66;1688752;82;21093;-68
2021/12/28 04:32:20;;;;;;;10.93;2.05;;;;;;;0.65;100.00;-1248.53;1712287;82;21076;-68
2021/12/28 04:34:47;;;;;;;5.12;1.82;;;;;;;0.65;100.00;-1412.39;1701989;82;21185;-67
2021/12/28 04:37:14;;;;;;;5.15;1.90;;;;;;;0.63;100.00;-1412.45;1714325;82;21095;-67
2021/12/28 04:39:40;;;;;;;6.65;2.20;;;;;;;0.58;100.00;-1084.98;1731152;80;20998;-67
2021/12/28 04:42:08;;;;;;;6.08;2.33;;;;;;;0.53;100.00;-593.63;1752547;80;21045;-66
2021/12/28 04:44:35;;;;;;;5.17;1.75;;;;;;;0.46;100.00;61.39;1713622;83;21417;-66
2021/12/28 04:47:01;;;;;;;10.32;2.27;;;;;;;0.38;100.00;880.28;1707229;82;21309;-67
2021/12/28 04:49:29;;;;;;;9.45;2.05;;;;;;;0.31;100.00;1535.30;1703981;82;21179;-67
2021/12/28 04:51:56;;;;;;;9.60;2.60;;;;;;;0.28;100.00;1862.95;1723245;82;21838;-68
2021/12/28 04:54:23;;;;;;;6.65;2.90;;;;;;;0.26;100.00;2026.68;1699453;82;21030;-68
2021/12/28 04:56:49;;;;;;;3.33;2.15;;;;;;;0.25;100.00;2026.58;1685947;82;21127;-68
2021/12/28 04:59:17;;;;;;;5.08;2.33;;;;;;;0.22;100.00;2190.20;1700357;82;21080;-67
2021/12/28 05:01:44;;;;;;;3.83;2.25;;;;;;;0.21;100.00;2190.04;1694286;82;21023;-67
2021/12/28 05:04:10;;;;;;;3.15;2.70;;;;;;;0.20;100.00;2189.99;1700701;83;21993;-66
2021/12/28 05:06:37;;;;;;;3.33;1.55;;;;;;;0.21;100.00;1862.27;1737987;80;21029;-66
2021/12/28 05:09:09;;;;;;;5.62;2.50;;;;;;;0.19;100.00;1862.02;1758991;80;21489;-67
2021/12/28 05:11:36;;;;;;;4.50;2.92;;;;;;;0.17;100.00;1861.88;1745959;80;21419;-67
2021/12/28 05:14:04;;;;;;;9.23;3.02;;;;;;;0.19;100.00;1698.13;1757456;80;21041;-59
2021/12/28 05:16:34;;;;;;;10.80;3.77;;;;;;;0.19;100.00;1370.41;1755360;79;21451;-58
2021/12/28 05:19:02;;;;;;;7.08;3.33;;;;;;;0.19;100.00;1370.41;1764201;80;21085;-68
2021/12/28 05:21:29;;;;;;;4.67;3.25;;;;;;;0.19;100.00;1370.41;1771635;80;21009;-67
2021/12/28 05:23:56;;;;;;;7.67;4.50;;;;;;;0.19;100.00;1206.49;1753170;80;21123;-66
2021/12/28 05:26:23;;;;;;;8.08;3.65;;;;;;;0.21;100.00;878.98;1759620;80;21011;-67
2021/12/28 05:28:49;;;;;;;8.63;3.37;;;;;;;0.22;100.00;551.32;1745800;81;21838;-66
2021/12/28 05:31:17;;;;;;;4.15;3.50;;;;;;;0.19;100.00;714.97;1758019;80;22148;-65
2021/12/28 05:33:44;;;;;;;6.12;3.75;;;;;;;0.16;100.00;1042.42;1754529;80;21057;-65
2021/12/28 05:36:11;;;;;;;5.25;4.00;;;;;;;0.12;100.00;1533.64;1763037;80;21342;-65
2021/12/28 05:38:37;;;;;;;4.83;3.45;;;;;;;0.09;100.00;1861.09;1718861;81;21025;-65
2021/12/28 05:41:04;;;;;;;5.53;4.20;;;;;;;0.04;100.00;2352.22;1726113;82;21568;-65
2021/12/28 05:43:32;;;;;;;4.17;3.27;;;;;;;0.01;100.00;2679.67;1752928;80;21087;-65
2021/12/28 05:45:59;;;;;;;6.80;2.85;;;;;;;-0.01;100.00;2679.56;1758347;80;21166;-65
2021/12/28 05:48:26;;;;;;;4.80;3.42;;;;;;;-0.03;100.00;2843.17;1752781;80;21965;-65
2021/12/28 05:50:53;;;;;;;4.20;3.20;;;;;;;-0.07;100.00;3170.55;1742817;81;22170;-66
2021/12/28 05:53:20;;;;;;;5.55;3.25;;;;;;;-0.10;100.00;3334.08;1761427;80;21804;-66
2021/12/28 05:55:46;;;;;;;7.25;3.60;;;;;;;-0.12;100.00;3497.67;1748581;80;21442;-66
2021/12/28 05:58:13;;;;;;;6.50;3.40;;;;;;;-0.16;100.00;3497.30;1749724;80;21036;-66
2021/12/28 06:00:40;;;;;;;5.95;4.60;;;;;;;-0.14;100.00;3333.59;1757801;80;21026;-66
2021/12/28 06:03:06;;;;;;;4.72;3.42;;;;;;;-0.13;100.00;3005.95;1762482;80;21028;-65
2021/12/28 06:05:33;;;;;;;6.40;4.45;;;;;;;-0.15;100.00;3005.78;1756417;80;21878;-68
2021/12/28 06:08:00;;;;;;;8.08;5.55;;;;;;;-0.16;100.00;3005.60;1750299;80;21071;-66
2021/12/28 06:10:30;;;;;;;4.97;3.65;;;;;;;-0.17;100.00;3005.55;1711080;81;21062;-66
2021/12/28 06:12:56;;;;;;;7.30;4.53;;;;;;;-0.17;100.00;3005.49;1753954;80;21148;-67
2021/12/28 06:15:23;;;;;;;8.08;4.70;;;;;;;-0.18;100.00;3169.23;1762411;80;21093;-66
2021/12/28 06:17:49;;;;;;;5.53;4.55;;;;;;;-0.18;100.00;3005.37;1757957;80;21430;-64
2021/12/28 06:20:16;;;;;;;9.73;6.22;;;;;;;-0.18;100.00;3005.43;1748888;81;21102;-64
2021/12/28 06:22:42;;;;;;;9.98;5.90;;;;;;;-0.18;100.00;3005.37;1754775;80;20988;-64
2021/12/28 06:25:09;;;;;;;12.00;6.58;;;;;;;-0.21;100.00;3332.74;1751661;80;21141;-64
2021/12/28 06:27:36;;;;;;;7.87;4.85;;;;;;;-0.21;100.00;3332.80;1751713;80;21092;-65
2021/12/28 06:30:04;;;;;;;10.50;7.20;;;;;;;-0.20;100.00;3169.00;1749484;80;21801;-65
2021/12/28 06:32:33;;;;;;;8.53;6.15;;;;;;;-0.20;100.00;3005.14;1757657;81;20934;-56
2021/12/28 06:34:59;;;;;;;10.75;7.30;;;;;;;-0.19;100.00;2841.40;1753949;81;21064;-56
2021/12/28 06:37:26;;;;;;;9.43;7.22;;;;;;;-0.17;100.00;2513.99;1756250;80;21629;-56
2021/12/28 06:39:53;;;;;;;13.68;7.00;;;;;;;-0.15;100.00;2186.54;1753246;80;21032;-57
2021/12/28 06:42:19;;;;;;;10.48;6.08;;;;;;;-0.13;100.00;2022.82;1752776;81;21500;-57
2021/12/28 06:44:47;;;;;;;10.15;7.33;;;;;;;-0.13;100.00;2022.82;1745847;81;21060;-57
2021/12/28 06:47:14;;;;;;;10.80;8.85;;;;;;;-0.16;100.00;2350.21;1711892;83;21624;-57
2021/12/28 06:49:41;;;;;;;17.32;10.90;;;;;;;-0.15;100.00;2350.32;1751273;80;21074;-57
2021/12/28 06:52:07;;;;;;;16.12;10.28;;;;;;;-0.13;100.00;2022.86;1750294;80;21259;-57
2021/12/28 06:54:37;;;;;;;17.50;9.08;;;;;;;-0.11;100.00;1859.24;1751006;80;21121;-57
2021/12/28 06:57:09;;;;;;;19.70;10.32;;;;;;;-0.11;100.00;1695.43;1753248;80;21035;-58
2021/12/28 06:59:38;;;;;;;14.18;9.35;;;;;;;-0.10;100.00;1695.52;1717512;81;21016;-57
2021/12/28 07:02:05;;;;;;;16.12;11.05;;;;;;;-0.10;100.00;1695.52;1754180;80;21041;-58
2021/12/28 07:04:33;;;;;;;15.78;10.23;;;;;;;-0.11;100.00;1695.43;1750990;80;21020;-57
2021/12/28 07:07:00;;;;;;;13.50;8.68;;;;;;;-0.08;100.00;1531.89;1759968;80;21123;-57
2021/12/28 07:09:28;;;;;;;12.47;8.78;;;;;;;-0.10;100.00;1531.66;1758310;80;21068;-59
2021/12/28 07:11:55;;;;;;;13.10;7.75;;;;;;;-0.17;100.00;2350.11;1732804;80;21064;-65
2021/12/28 07:14:22;;;;;;;13.30;8.15;;;;;;;-0.24;100.00;2840.83;1750271;80;21052;-64
2021/12/28 07:16:49;;;;;;;15.93;7.72;;;;;;;-0.26;100.00;3168.34;1753525;80;21083;-65
2021/12/28 07:19:16;;;;;;;13.08;7.22;;;;;;;-0.32;100.00;3659.22;1752111;80;21071;-65
2021/12/28 07:21:43;;;;;;;12.40;8.40;;;;;;;-0.37;100.00;4150.14;1758464;80;21465;-57
2021/12/28 07:24:10;;;;;;;12.88;7.95;;;;;;;-0.42;100.00;4641.06;1752928;80;21035;-57
2021/12/28 07:26:37;;;;;;;14.87;7.92;;;;;;;-0.41;100.00;4641.14;1759955;80;20937;-57
2021/12/28 07:29:04;;;;;;;14.03;9.35;;;;;;;-0.41;100.00;4477.33;1713580;81;21108;-57
2021/12/28 07:31:31;;;;;;;11.83;7.28;;;;;;;-0.41;100.00;4313.39;1754854;80;22406;-57
2021/12/28 07:33:58;;;;;;;12.30;8.55;;;;;;;-0.41;100.00;4313.46;1725688;81;21179;-57
2021/12/28 07:36:26;;;;;;;15.95;9.90;;;;;;;-0.44;100.00;4640.78;1743017;80;21119;-57
2021/12/28 07:38:52;;;;;;;15.08;8.95;;;;;;;-0.44;100.00;4640.78;1717456;81;21100;-57
2021/12/28 07:41:19;;;;;;;11.68;8.00;;;;;;;-0.44;100.00;4640.85;1724881;81;21565;-58
2021/12/28 07:43:45;;;;;;;10.55;6.97;;;;;;;-0.45;100.00;4804.51;1754435;80;21132;-57
2021/12/28 07:46:12;;;;;;;10.95;7.12;;;;;;;-0.45;100.00;4804.58;1725021;81;21442;-57
2021/12/28 07:48:39;;;;;;;12.37;8.30;;;;;;;-0.46;100.00;4804.36;1757266;80;21051;-58
2021/12/28 07:51:07;;;;;;;12.37;7.65;;;;;;;-0.44;100.00;4804.65;1753423;80;21037;-58
2021/12/28 07:53:35;;;;;;;14.87;9.40;;;;;;;-0.43;100.00;4640.92;1754287;80;21012;-59
2021/12/28 07:56:02;;;;;;;12.00;8.18;;;;;;;-0.42;100.00;4477.19;1748799;80;21137;-59
2021/12/28 07:58:29;;;;;;;13.72;9.20;;;;;;;-0.42;100.00;4640.99;1716652;81;21076;-57
2021/12/28 08:00:57;;;;;;;14.43;8.88;;;;;;;-0.42;100.00;4641.06;1710450;82;21520;-58
2021/12/28 08:03:24;;;;;;;15.85;9.78;;;;;;;-0.39;100.00;4477.61;1729034;81;21459;-59
2021/12/28 08:05:51;;;;;;;14.18;9.05;;;;;;;-0.36;100.00;4150.21;1736536;81;21106;-59
2021/12/28 08:08:20;;;;;;;13.62;8.75;;;;;;;-0.34;100.00;3986.68;1714613;82;21567;-58
2021/12/28 08:10:47;;;;;;;14.10;10.05;;;;;;;-0.36;100.00;4478.04;1747312;80;21041;-58
2021/12/28 08:13:16;;;;;;;15.05;9.63;;;;;;;-0.36;100.00;4805.82;1722773;81;21656;-60
2021/12/28 08:15:43;;;;;;;13.22;8.13;;;;;;;-0.34;100.00;4806.12;1719786;81;21061;-58
2021/12/28 08:18:12;;;;;;;12.13;8.38;;;;;;;-0.35;100.00;5133.80;1760454;80;21035;-58
2021/12/28 08:20:38;;;;;;;12.90;8.40;;;;;;;-0.36;100.00;5461.50;1766900;79;22012;-60
2021/12/28 08:23:06;;;;;;;13.05;8.70;;;;;;;-0.36;100.00;5625.44;1763321;79;21070;-59
2021/12/28 08:25:33;;;;;;;13.68;9.05;;;;;;;-0.35;100.00;5953.51;1761548;79;21084;-59
2021/12/28 08:28:05;;;;;;;16.20;8.45;;;;;;;-0.34;100.00;5953.67;1763436;79;21095;-59
2021/12/28 08:30:35;;;;;;;16.30;10.10;;;;;;;-0.36;100.00;6445.26;1768121;79;21883;-59
2021/12/28 08:33:04;;;;;;;14.40;9.90;;;;;;;-0.38;100.00;6936.79;1766964;79;21104;-60
2021/12/28 08:35:31;;;;;;;10.82;6.67;;;;;;;-0.37;100.00;7429.12;1727335;81;21200;-59
2021/12/28 08:37:58;;;;;;;17.12;10.08;;;;;;;-0.38;100.00;7757.00;1738956;81;21135;-59
2021/12/28 08:40:25;;;;;;;21.27;12.75;;;;;;;-0.39;100.00;8412.94;1749817;80;21075;-61
2021/12/28 08:42:53;;;;;;;20.23;10.72;;;;;;;-0.40;100.00;8740.99;1731533;81;21044;-59
2021/12/28 08:45:19;;;;;;;23.55;11.88;;;;;;;-0.41;100.00;8904.87;1743572;80;21131;-58
2021/12/28 08:47:47;;;;;;;28.02;14.83;;;;;;;-0.38;100.00;8741.41;1741146;80;21682;-58
2021/12/28 08:50:15;;;;;;;34.13;17.85;;;;;;;-0.40;100.00;9069.18;1733644;81;21071;-60
2021/12/28 08:52:42;;;;;;;21.45;13.40;;;;;;;-0.43;100.00;9724.98;1726750;81;22419;-58
2021/12/28 08:55:09;;;;;;;51.77;23.73;;;;;;;-0.45;100.00;10217.04;1762304;79;21096;-59
2021/12/28 08:57:37;;;;;;;28.60;14.30;;;;;;;-0.46;100.00;10709.16;1734492;81;21147;-58
2021/12/28 09:00:12;;;;;;;24.77;13.15;;;;;;;-0.44;100.00;10709.78;1760985;79;21099;-59
2021/12/28 09:02:39;;;;;;;16.02;9.30;;;;;;;-0.40;100.00;10546.45;1760558;79;21098;-60
2021/12/28 09:05:06;;;;;;;16.97;8.83;;;;;;;-0.42;100.00;10874.32;1770999;79;21092;-60
2021/12/28 09:07:34;;;;;;;15.75;9.25;;;;;;;-0.45;100.00;12023.04;1748229;80;21051;-60
2021/12/28 09:10:01;;;;;;;19.25;10.95;;;;;;;-0.49;100.00;13171.90;1726673;81;21589;-59
2021/12/28 09:12:28;;;;;;;13.95;7.53;;;;;;;-0.45;100.00;13172.91;1773387;79;21103;-59
2021/12/28 09:14:59;;;;;;;16.10;9.08;;;;;;;-0.39;100.00;12517.44;1765090;79;21086;-60
2021/12/28 09:17:25;;;;;;;53.87;21.33;;;;;;;-0.39;100.00;12846.02;1761264;79;21144;-59
2021/12/28 09:19:52;;;;;;;31.90;13.43;;;;;;;-0.37;100.00;12846.44;1753175;80;21067;-59
2021/12/28 09:22:19;;;;;;;23.00;11.88;;;;;;;-0.34;100.00;12847.28;1756106;80;21132;-59
2021/12/28 09:24:46;;;;;;;23.98;11.43;;;;;;;-0.33;100.00;12847.70;1749510;80;21115;-59
2021/12/28 09:27:12;;;;;;;18.67;7.80;;;;;;;-0.31;100.00;12848.26;1743451;80;21119;-59
2021/12/28 09:29:43;;;;;;;34.95;14.47;;;;;;;-0.30;100.00;13341.39;1751374;80;21058;-60
2021/12/28 09:32:08;;;;;;;25.08;10.60;;;;;;;-0.27;100.00;13670.83;1751570;80;21082;-59
2021/12/28 09:34:35;;;;;;;42.13;11.70;;;;;;;-0.31;100.00;14985.07;1747636;80;21121;-60
2021/12/28 09:37:03;;;;;;;24.70;10.65;;;;;;;-0.36;100.00;16627.98;1752234;80;21056;-59
2021/12/28 09:39:31;;;;;;;21.10;8.98;;;;;;;-0.37;100.00;17450.00;1747611;80;21585;-58
2021/12/28 09:42:00;;;;;;;22.73;9.48;;;;;;;-0.41;100.00;18271.44;1748532;80;21087;-60
2021/12/28 09:44:29;;;;;;;24.43;11.73;;;;;;;-0.39;100.00;18765.73;1715505;82;21001;-59
2021/12/28 09:46:56;;;;;;;34.98;13.95;;;;;;;-0.37;100.00;18437.50;1746344;80;22292;-59
2021/12/28 09:49:22;;;;;;;31.65;12.85;;;;;;;-0.37;100.00;18602.08;1747536;80;21111;-59
2021/12/28 09:51:49;;;;;;;27.02;14.03;;;;;;;-0.40;100.00;19423.75;1740865;80;21041;-60
2021/12/28 09:54:15;;;;;;;16.00;8.43;;;;;;;-0.42;100.00;19752.41;1712848;81;21633;-59
2021/12/28 09:56:42;;;;;;;17.55;8.60;;;;;;;-0.43;100.00;20245.93;1749436;80;21062;-60
2021/12/28 09:59:10;;;;;;;26.65;11.08;;;;;;;-0.46;100.00;21068.03;1744371;80;21031;-59
2021/12/28 10:01:37;;;;;;;24.05;11.00;;;;;;;-0.46;100.00;21068.03;1754817;80;21146;-59
2021/12/28 10:04:04;;;;;;;20.23;7.87;;;;;;;-0.45;100.00;20574.63;1751381;80;21532;-59
2021/12/28 10:06:32;;;;;;;37.28;17.32;;;;;;;-0.44;100.00;20574.84;1756832;80;21068;-58
2021/12/28 10:09:15;;;;;;;65.55;28.83;;;;;;;-0.45;100.00;20739.09;1753381;80;21103;-67
2021/12/28 10:11:49;;;;;;;33.85;17.40;;;;;;;-0.43;100.00;20245.93;1729344;81;21552;-64
2021/12/28 10:14:28;;;;;;;31.65;16.07;;;;;;;-0.40;100.00;19423.95;1749362;80;22041;-68
2021/12/28 10:16:58;;;;;;;57.20;24.80;;;;;;;-0.38;100.00;19095.49;1757575;80;21592;-68
2021/12/28 10:19:42;;;;;;;44.95;18.23;;;;;;;-0.37;100.00;18766.67;1759354;80;21060;-59
2021/12/28 10:22:30;;;;;;;50.30;23.38;;;;;;;-0.37;100.00;18766.67;1757803;80;21044;-59
2021/12/28 10:25:12;;;;;;;56.63;26.10;;;;;;;-0.35;100.00;18438.25;1729308;81;21126;-59
2021/12/28 10:27:40;;;;;;;43.13;19.35;;;;;;;-0.34;100.00;18274.04;1726944;81;21490;-58
2021/12/28 10:30:22;;;;;;;24.77;13.85;;;;;;;-0.34;100.00;18438.62;1760246;80;21051;-60
2021/12/28 10:32:52;;;;;;;61.30;24.05;;;;;;;-0.34;100.00;18438.62;1743907;81;21030;-60
2021/12/28 10:35:22;;;;;;;87.57;36.77;;;;;;;-0.37;100.00;19095.88;1744149;81;21344;-59
2021/12/28 10:37:53;;;;;;;55.78;22.40;;;;;;;-0.38;100.00;19589.35;1745743;81;21521;-59
2021/12/28 10:40:30;;;;;;;46.95;22.07;;;;;;;-0.32;100.00;18768.57;1753066;80;21063;-59
2021/12/28 10:43:05;;;;;;;48.45;23.77;;;;;;;-0.31;100.00;18604.35;1752011;80;21044;-61
2021/12/28 10:45:43;;;;;;;49.20;23.35;;;;;;;-0.27;100.00;18605.48;1750758;80;21142;-65
2021/12/28 10:48:21;;;;;;;44.05;21.07;;;;;;;-0.22;100.00;18113.71;1719194;81;21102;-65
2021/12/28 10:51:04;;;;;;;39.60;20.92;;;;;;;-0.19;100.00;18114.63;1721968;81;21031;-64
2021/12/28 10:53:48;;;;;;;32.08;16.62;;;;;;;-0.22;100.00;19101.27;1714807;82;21604;-64
2021/12/28 10:56:12;;;;;;;53.17;23.45;;;;;;;-0.25;100.00;20253.00;1759446;80;21451;-63
2021/12/28 10:58:43;;;;;;;24.77;14.40;;;;;;;-0.22;100.00;20748.17;1752671;80;21028;-64
2021/12/28 11:01:20;;;;;;;35.00;18.92;;;;;;;-0.21;100.00;20748.58;1732199;81;21096;-64
2021/12/28 11:03:54;;;;;;;60.00;25.85;;;;;;;-0.26;100.00;22394.34;1755571;80;21111;-63
2021/12/28 11:06:27;;;;;;;51.80;23.65;;;;;;;-0.26;100.00;22888.57;1734615;80;21075;-64
2021/12/28 11:08:57;;;;;;;68.15;28.57;;;;;;;-0.29;100.00;24041.38;1755330;80;21056;-65
2021/12/28 11:11:25;;;;;;;56.50;24.05;;;;;;;-0.40;100.00;27830.11;1715164;81;21598;-64
2021/12/28 11:13:58;;;;;;;97.20;38.42;;;;;;;-0.41;100.00;29314.93;1715136;81;21123;-64
2021/12/28 11:16:27;;;;;;;53.65;23.75;;;;;;;-0.48;100.00;31788.53;1723801;81;21111;-65
2021/12/28 11:18:59;;;;;;;44.65;19.23;;;;;;;-0.55;100.00;34263.11;1710370;81;21554;-64
2021/12/28 11:21:29;;;;;;;37.80;19.23;;;;;;;-0.54;100.00;33272.01;1747659;80;21256;-64
2021/12/28 11:24:05;;;;;;;87.47;33.73;;;;;;;-0.54;100.00;32446.09;1748932;80;21866;-64
2021/12/28 11:26:42;;;;;;;76.22;29.80;;;;;;;-0.53;100.00;32281.17;1714058;82;21145;-63
2021/12/28 11:29:23;;;;;;;52.48;24.67;;;;;;;-0.56;100.00;33105.50;1721596;82;21151;-64
2021/12/28 11:31:59;;;;;;;48.65;22.48;;;;;;;-0.58;100.00;33600.67;1753147;80;21054;-63
2021/12/28 11:34:29;;;;;;;32.65;17.87;;;;;;;-0.55;100.00;31949.84;1749285;80;21088;-64
2021/12/28 11:37:05;;;;;;;33.20;17.30;;;;;;;-0.52;100.00;30134.86;1727523;81;21116;-63
2021/12/28 11:39:39;;;;;;;39.75;21.33;;;;;;;-0.51;100.00;29970.30;1716347;81;21159;-63